sensor_id;sensor_type;location;lat;lon;timestamp;temperature;humidity
29939;DHT22;16799;50.844;5.304;2024-02-14T00:00:10;9.40;99.90
29939;DHT22;16799;50.844;5.304;2024-02-14T00:02:40;9.40;99.90
29939;DHT22;16799;50.844;5.304;2024-02-14T00:05:07;9.40;99.90
29939;DHT22;16799;50.844;5.304;2024-02-14T00:07:32;9.40;99.90
29939;DHT22;16799;50.844;5.304;2024-02-14T00:09:58;9.40;99.90
29939;DHT22;16799;50.844;5.304;2024-02-14T00:12:24;9.40;99.90
29939;DHT22;16799;50.844;5.304;2024-02-14T00:14:50;9.40;99.90
29939;DHT22;16799;50.844;5.304;2024-02-14T00:17:16;9.50;99.90
29939;DHT22;16799;50.844;5.304;2024-02-14T00:19:41;9.50;99.90
29939;DHT22;16799;50.844;5.304;2024-02-14T00:22:07;9.50;99.90
29939;DHT22;16799;50.844;5.304;2024-02-14T00:24:33;9.50;99.90
29939;DHT22;16799;50.844;5.304;2024-02-14T00:26:59;9.50;99.90
29939;DHT22;16799;50.844;5.304;2024-02-14T00:29:26;9.40;99.90
29939;DHT22;16799;50.844;5.304;2024-02-14T00:31:52;9.50;99.90
29939;DHT22;16799;50.844;5.304;2024-02-14T00:34:17;9.50;99.90
29939;DHT22;16799;50.844;5.304;2024-02-14T00:36:43;9.60;99.90
29939;DHT22;16799;50.844;5.304;2024-02-14T00:39:08;9.60;99.90
29939;DHT22;16799;50.844;5.304;2024-02-14T00:41:35;9.50;99.90
29939;DHT22;16799;50.844;5.304;2024-02-14T00:44:01;9.60;99.90
29939;DHT22;16799;50.844;5.304;2024-02-14T00:46:28;9.50;99.90
29939;DHT22;16799;50.844;5.304;2024-02-14T00:48:54;9.60;99.90
29939;DHT22;16799;50.844;5.304;2024-02-14T00:51:21;9.60;99.90
29939;DHT22;16799;50.844;5.304;2024-02-14T00:53:46;9.60;99.90
29939;DHT22;16799;50.844;5.304;2024-02-14T00:56:12;9.60;99.90
29939;DHT22;16799;50.844;5.304;2024-02-14T00:58:38;9.50;99.90
29939;DHT22;16799;50.844;5.304;2024-02-14T01:01:04;9.50;99.90
29939;DHT22;16799;50.844;5.304;2024-02-14T01:03:31;9.50;99.90
29939;DHT22;16799;50.844;5.304;2024-02-14T01:05:57;9.40;99.90
29939;DHT22;16799;50.844;5.304;2024-02-14T01:08:22;9.40;99.90
29939;DHT22;16799;50.844;5.304;2024-02-14T01:10:48;9.50;99.90
29939;DHT22;16799;50.844;5.304;2024-02-14T01:13:17;9.50;99.90
29939;DHT22;16799;50.844;5.304;2024-02-14T01:15:43;9.50;99.90
29939;DHT22;16799;50.844;5.304;2024-02-14T01:18:08;9.60;99.90
29939;DHT22;16799;50.844;5.304;2024-02-14T01:20:34;9.50;99.90
29939;DHT22;16799;50.844;5.304;2024-02-14T01:23:00;9.50;99.90
29939;DHT22;16799;50.844;5.304;2024-02-14T01:25:26;9.60;99.90
29939;DHT22;16799;50.844;5.304;2024-02-14T01:27:52;9.50;99.90
29939;DHT22;16799;50.844;5.304;2024-02-14T01:30:18;9.60;99.90
29939;DHT22;16799;50.844;5.304;2024-02-14T01:32:44;9.60;99.90
29939;DHT22;16799;50.844;5.304;2024-02-14T01:35:10;9.60;99.90
29939;DHT22;16799;50.844;5.304;2024-02-14T01:37:36;9.60;99.90
29939;DHT22;16799;50.844;5.304;2024-02-14T01:40:01;9.60;99.90
29939;DHT22;16799;50.844;5.304;2024-02-14T01:42:27;9.70;99.90
29939;DHT22;16799;50.844;5.304;2024-02-14T01:44:53;9.70;99.90
29939;DHT22;16799;50.844;5.304;2024-02-14T01:47:22;9.70;99.90
29939;DHT22;16799;50.844;5.304;2024-02-14T01:49:48;9.80;99.90
29939;DHT22;16799;50.844;5.304;2024-02-14T01:52:14;9.80;99.90
29939;DHT22;16799;50.844;5.304;2024-02-14T01:54:40;9.80;99.90
29939;DHT22;16799;50.844;5.304;2024-02-14T01:57:07;9.70;99.90
29939;DHT22;16799;50.844;5.304;2024-02-14T01:59:34;9.80;99.90
29939;DHT22;16799;50.844;5.304;2024-02-14T02:02:04;9.80;99.90
29939;DHT22;16799;50.844;5.304;2024-02-14T02:04:32;9.90;99.90
29939;DHT22;16799;50.844;5.304;2024-02-14T02:06:58;9.80;99.90
29939;DHT22;16799;50.844;5.304;2024-02-14T02:09:24;9.80;99.90
29939;DHT22;16799;50.844;5.304;2024-02-14T02:11:50;9.80;99.90
29939;DHT22;16799;50.844;5.304;2024-02-14T02:14:16;9.70;99.90
29939;DHT22;16799;50.844;5.304;2024-02-14T02:16:42;9.80;99.90
29939;DHT22;16799;50.844;5.304;2024-02-14T02:19:08;9.80;99.90
29939;DHT22;16799;50.844;5.304;2024-02-14T02:21:38;9.70;99.90
29939;DHT22;16799;50.844;5.304;2024-02-14T02:24:04;9.70;99.90
29939;DHT22;16799;50.844;5.304;2024-02-14T02:26:30;9.70;99.90
29939;DHT22;16799;50.844;5.304;2024-02-14T02:28:56;9.60;99.90
29939;DHT22;16799;50.844;5.304;2024-02-14T02:31:22;9.60;99.90
29939;DHT22;16799;50.844;5.304;2024-02-14T02:33:48;9.60;99.90
29939;DHT22;16799;50.844;5.304;2024-02-14T02:36:15;9.60;99.90
29939;DHT22;16799;50.844;5.304;2024-02-14T02:38:41;9.60;99.90
29939;DHT22;16799;50.844;5.304;2024-02-14T02:41:07;9.70;99.90
29939;DHT22;16799;50.844;5.304;2024-02-14T02:43:33;9.70;99.90
29939;DHT22;16799;50.844;5.304;2024-02-14T02:45:59;9.70;99.90
29939;DHT22;16799;50.844;5.304;2024-02-14T02:48:25;9.70;99.90
29939;DHT22;16799;50.844;5.304;2024-02-14T02:50:51;9.70;99.90
29939;DHT22;16799;50.844;5.304;2024-02-14T02:53:17;9.70;99.90
29939;DHT22;16799;50.844;5.304;2024-02-14T02:55:43;9.70;99.90
29939;DHT22;16799;50.844;5.304;2024-02-14T02:58:09;9.80;99.90
29939;DHT22;16799;50.844;5.304;2024-02-14T03:00:35;9.70;99.90
29939;DHT22;16799;50.844;5.304;2024-02-14T03:03:00;9.70;99.90
29939;DHT22;16799;50.844;5.304;2024-02-14T03:05:28;9.70;99.90
29939;DHT22;16799;50.844;5.304;2024-02-14T03:07:57;9.70;99.90
29939;DHT22;16799;50.844;5.304;2024-02-14T03:10:24;9.70;99.90
29939;DHT22;16799;50.844;5.304;2024-02-14T03:12:50;9.70;99.90
29939;DHT22;16799;50.844;5.304;2024-02-14T03:15:17;9.80;99.90
29939;DHT22;16799;50.844;5.304;2024-02-14T03:17:44;9.70;99.90
29939;DHT22;16799;50.844;5.304;2024-02-14T03:20:10;9.60;99.90
29939;DHT22;16799;50.844;5.304;2024-02-14T03:22:40;9.60;99.90
29939;DHT22;16799;50.844;5.304;2024-02-14T03:25:21;9.60;99.90
29939;DHT22;16799;50.844;5.304;2024-02-14T03:27:47;9.80;99.90
29939;DHT22;16799;50.844;5.304;2024-02-14T03:30:16;9.80;99.90
29939;DHT22;16799;50.844;5.304;2024-02-14T03:32:45;9.80;99.90
29939;DHT22;16799;50.844;5.304;2024-02-14T03:35:12;9.80;99.90
29939;DHT22;16799;50.844;5.304;2024-02-14T03:37:39;9.80;99.90
29939;DHT22;16799;50.844;5.304;2024-02-14T03:40:06;9.80;99.90
29939;DHT22;16799;50.844;5.304;2024-02-14T03:42:33;9.80;99.90
29939;DHT22;16799;50.844;5.304;2024-02-14T03:44:59;9.90;99.90
29939;DHT22;16799;50.844;5.304;2024-02-14T03:47:31;9.90;99.90
29939;DHT22;16799;50.844;5.304;2024-02-14T03:50:00;9.90;99.90
29939;DHT22;16799;50.844;5.304;2024-02-14T03:52:27;9.90;99.90
29939;DHT22;16799;50.844;5.304;2024-02-14T03:54:53;9.90;99.90
29939;DHT22;16799;50.844;5.304;2024-02-14T03:57:19;9.90;99.90
29939;DHT22;16799;50.844;5.304;2024-02-14T03:59:45;9.90;99.90
29939;DHT22;16799;50.844;5.304;2024-02-14T04:02:11;10.00;99.90
29939;DHT22;16799;50.844;5.304;2024-02-14T04:04:37;10.00;99.90
29939;DHT22;16799;50.844;5.304;2024-02-14T04:07:04;10.00;99.90
29939;DHT22;16799;50.844;5.304;2024-02-14T04:09:32;9.90;99.90
29939;DHT22;16799;50.844;5.304;2024-02-14T04:11:58;9.90;99.90
29939;DHT22;16799;50.844;5.304;2024-02-14T04:14:24;9.90;99.90
29939;DHT22;16799;50.844;5.304;2024-02-14T04:16:49;9.90;99.90
29939;DHT22;16799;50.844;5.304;2024-02-14T04:19:15;9.80;99.90
29939;DHT22;16799;50.844;5.304;2024-02-14T04:21:42;9.90;99.90
29939;DHT22;16799;50.844;5.304;2024-02-14T04:24:08;9.80;99.90
29939;DHT22;16799;50.844;5.304;2024-02-14T04:26:34;9.80;99.90
29939;DHT22;16799;50.844;5.304;2024-02-14T04:29:00;9.80;99.90
29939;DHT22;16799;50.844;5.304;2024-02-14T04:31:25;9.70;99.90
29939;DHT22;16799;50.844;5.304;2024-02-14T04:33:52;9.60;99.90
29939;DHT22;16799;50.844;5.304;2024-02-14T04:36:19;9.60;99.90
29939;DHT22;16799;50.844;5.304;2024-02-14T04:38:46;9.80;99.90
29939;DHT22;16799;50.844;5.304;2024-02-14T04:41:12;9.80;99.90
29939;DHT22;16799;50.844;5.304;2024-02-14T04:43:38;9.80;99.90
29939;DHT22;16799;50.844;5.304;2024-02-14T04:46:04;9.80;99.90
29939;DHT22;16799;50.844;5.304;2024-02-14T04:48:32;9.70;99.90
29939;DHT22;16799;50.844;5.304;2024-02-14T04:50:58;9.70;99.90
29939;DHT22;16799;50.844;5.304;2024-02-14T04:53:24;9.70;99.90
29939;DHT22;16799;50.844;5.304;2024-02-14T04:55:50;9.80;99.90
29939;DHT22;16799;50.844;5.304;2024-02-14T04:58:15;9.90;99.90
29939;DHT22;16799;50.844;5.304;2024-02-14T05:00:42;9.80;99.90
29939;DHT22;16799;50.844;5.304;2024-02-14T05:03:07;9.80;99.90
29939;DHT22;16799;50.844;5.304;2024-02-14T05:05:35;9.80;99.90
29939;DHT22;16799;50.844;5.304;2024-02-14T05:08:01;9.90;99.90
29939;DHT22;16799;50.844;5.304;2024-02-14T05:10:33;9.90;99.90
29939;DHT22;16799;50.844;5.304;2024-02-14T05:12:58;9.90;99.90
29939;DHT22;16799;50.844;5.304;2024-02-14T05:15:24;9.90;99.90
29939;DHT22;16799;50.844;5.304;2024-02-14T05:17:50;9.80;99.90
29939;DHT22;16799;50.844;5.304;2024-02-14T05:20:16;9.70;99.90
29939;DHT22;16799;50.844;5.304;2024-02-14T05:22:42;9.70;99.90
29939;DHT22;16799;50.844;5.304;2024-02-14T05:25:08;9.80;99.90
29939;DHT22;16799;50.844;5.304;2024-02-14T05:27:35;9.80;99.90
29939;DHT22;16799;50.844;5.304;2024-02-14T05:30:01;9.70;99.90
29939;DHT22;16799;50.844;5.304;2024-02-14T05:32:31;9.70;99.90
29939;DHT22;16799;50.844;5.304;2024-02-14T05:34:57;9.80;99.90
29939;DHT22;16799;50.844;5.304;2024-02-14T05:37:23;9.90;99.90
29939;DHT22;16799;50.844;5.304;2024-02-14T05:39:49;10.00;99.90
29939;DHT22;16799;50.844;5.304;2024-02-14T05:42:15;9.90;99.90
29939;DHT22;16799;50.844;5.304;2024-02-14T05:44:42;10.00;99.90
29939;DHT22;16799;50.844;5.304;2024-02-14T05:47:09;10.00;99.90
29939;DHT22;16799;50.844;5.304;2024-02-14T05:49:35;9.90;99.90
29939;DHT22;16799;50.844;5.304;2024-02-14T05:52:01;10.10;99.90
29939;DHT22;16799;50.844;5.304;2024-02-14T05:54:26;10.10;99.90
29939;DHT22;16799;50.844;5.304;2024-02-14T05:56:52;10.10;99.90
29939;DHT22;16799;50.844;5.304;2024-02-14T05:59:18;10.10;99.90
29939;DHT22;16799;50.844;5.304;2024-02-14T06:01:43;10.30;99.90
29939;DHT22;16799;50.844;5.304;2024-02-14T06:04:09;10.30;99.90
29939;DHT22;16799;50.844;5.304;2024-02-14T06:06:34;10.40;99.90
29939;DHT22;16799;50.844;5.304;2024-02-14T06:09:00;10.40;99.90
29939;DHT22;16799;50.844;5.304;2024-02-14T06:11:26;10.40;99.90
29939;DHT22;16799;50.844;5.304;2024-02-14T06:13:51;10.40;99.90
29939;DHT22;16799;50.844;5.304;2024-02-14T06:16:17;10.10;99.90
29939;DHT22;16799;50.844;5.304;2024-02-14T06:18:43;10.20;99.90
29939;DHT22;16799;50.844;5.304;2024-02-14T06:21:09;10.10;99.90
29939;DHT22;16799;50.844;5.304;2024-02-14T06:23:35;10.20;99.90
29939;DHT22;16799;50.844;5.304;2024-02-14T06:26:02;10.20;99.90
29939;DHT22;16799;50.844;5.304;2024-02-14T06:28:29;10.30;99.90
29939;DHT22;16799;50.844;5.304;2024-02-14T06:30:55;10.30;99.90
29939;DHT22;16799;50.844;5.304;2024-02-14T06:33:20;10.40;99.90
29939;DHT22;16799;50.844;5.304;2024-02-14T06:35:46;10.30;99.90
29939;DHT22;16799;50.844;5.304;2024-02-14T06:38:12;10.20;99.90
29939;DHT22;16799;50.844;5.304;2024-02-14T06:40:37;10.20;99.90
29939;DHT22;16799;50.844;5.304;2024-02-14T06:43:03;10.20;99.90
29939;DHT22;16799;50.844;5.304;2024-02-14T06:45:29;10.20;99.90
29939;DHT22;16799;50.844;5.304;2024-02-14T06:47:55;10.40;99.90
29939;DHT22;16799;50.844;5.304;2024-02-14T06:50:20;10.60;99.90
29939;DHT22;16799;50.844;5.304;2024-02-14T06:52:46;10.70;99.90
29939;DHT22;16799;50.844;5.304;2024-02-14T06:55:12;10.60;99.90
29939;DHT22;16799;50.844;5.304;2024-02-14T06:57:38;10.70;99.90
29939;DHT22;16799;50.844;5.304;2024-02-14T07:00:05;10.70;99.90
29939;DHT22;16799;50.844;5.304;2024-02-14T07:02:32;10.50;99.90
29939;DHT22;16799;50.844;5.304;2024-02-14T07:04:57;10.40;99.90
29939;DHT22;16799;50.844;5.304;2024-02-14T07:07:23;10.60;99.90
29939;DHT22;16799;50.844;5.304;2024-02-14T07:09:48;10.60;99.90
29939;DHT22;16799;50.844;5.304;2024-02-14T07:12:14;10.60;99.90
29939;DHT22;16799;50.844;5.304;2024-02-14T07:14:40;10.60;99.90
29939;DHT22;16799;50.844;5.304;2024-02-14T07:17:06;10.60;99.90
29939;DHT22;16799;50.844;5.304;2024-02-14T07:19:32;10.50;99.90
29939;DHT22;16799;50.844;5.304;2024-02-14T07:21:57;10.50;99.90
29939;DHT22;16799;50.844;5.304;2024-02-14T07:24:23;10.50;99.90
29939;DHT22;16799;50.844;5.304;2024-02-14T07:26:48;10.50;99.90
29939;DHT22;16799;50.844;5.304;2024-02-14T07:29:14;10.60;99.90
29939;DHT22;16799;50.844;5.304;2024-02-14T07:31:40;10.70;99.90
29939;DHT22;16799;50.844;5.304;2024-02-14T07:34:06;10.80;99.90
29939;DHT22;16799;50.844;5.304;2024-02-14T07:36:32;10.90;99.90
29939;DHT22;16799;50.844;5.304;2024-02-14T07:38:58;10.90;99.90
29939;DHT22;16799;50.844;5.304;2024-02-14T07:41:24;10.90;99.90
29939;DHT22;16799;50.844;5.304;2024-02-14T07:43:50;10.90;99.90
29939;DHT22;16799;50.844;5.304;2024-02-14T07:46:19;10.90;99.90
29939;DHT22;16799;50.844;5.304;2024-02-14T07:48:45;11.00;99.90
29939;DHT22;16799;50.844;5.304;2024-02-14T07:51:11;11.00;99.90
29939;DHT22;16799;50.844;5.304;2024-02-14T07:53:37;11.00;99.90
29939;DHT22;16799;50.844;5.304;2024-02-14T07:56:03;11.10;99.90
29939;DHT22;16799;50.844;5.304;2024-02-14T07:58:29;10.90;99.90
29939;DHT22;16799;50.844;5.304;2024-02-14T08:00:54;11.00;99.90
29939;DHT22;16799;50.844;5.304;2024-02-14T08:03:20;10.90;99.90
29939;DHT22;16799;50.844;5.304;2024-02-14T08:05:46;10.90;99.90
29939;DHT22;16799;50.844;5.304;2024-02-14T08:08:11;11.10;99.90
29939;DHT22;16799;50.844;5.304;2024-02-14T08:10:37;11.10;99.90
29939;DHT22;16799;50.844;5.304;2024-02-14T08:13:04;11.20;99.90
29939;DHT22;16799;50.844;5.304;2024-02-14T08:15:30;11.20;99.90
29939;DHT22;16799;50.844;5.304;2024-02-14T08:17:55;11.20;99.90
29939;DHT22;16799;50.844;5.304;2024-02-14T08:20:22;11.30;99.90
29939;DHT22;16799;50.844;5.304;2024-02-14T08:22:49;11.30;99.90
29939;DHT22;16799;50.844;5.304;2024-02-14T08:25:15;11.30;99.90
29939;DHT22;16799;50.844;5.304;2024-02-14T08:27:41;11.30;99.90
29939;DHT22;16799;50.844;5.304;2024-02-14T08:30:07;11.30;99.90
29939;DHT22;16799;50.844;5.304;2024-02-14T08:32:34;11.30;99.90
29939;DHT22;16799;50.844;5.304;2024-02-14T08:35:00;11.30;99.90
29939;DHT22;16799;50.844;5.304;2024-02-14T08:37:26;11.40;99.90
29939;DHT22;16799;50.844;5.304;2024-02-14T08:39:52;11.50;99.90
29939;DHT22;16799;50.844;5.304;2024-02-14T08:42:18;11.50;99.90
29939;DHT22;16799;50.844;5.304;2024-02-14T08:44:44;11.50;99.90
29939;DHT22;16799;50.844;5.304;2024-02-14T08:47:10;11.40;99.90
29939;DHT22;16799;50.844;5.304;2024-02-14T08:49:36;11.60;99.90
29939;DHT22;16799;50.844;5.304;2024-02-14T08:52:01;11.60;99.90
29939;DHT22;16799;50.844;5.304;2024-02-14T08:54:28;11.50;99.90
29939;DHT22;16799;50.844;5.304;2024-02-14T08:56:54;11.50;99.90
29939;DHT22;16799;50.844;5.304;2024-02-14T08:59:21;11.70;99.90
29939;DHT22;16799;50.844;5.304;2024-02-14T09:01:47;11.70;99.90
29939;DHT22;16799;50.844;5.304;2024-02-14T09:04:13;11.90;99.90
29939;DHT22;16799;50.844;5.304;2024-02-14T09:06:39;11.90;99.90
29939;DHT22;16799;50.844;5.304;2024-02-14T09:09:06;12.00;99.90
29939;DHT22;16799;50.844;5.304;2024-02-14T09:11:32;11.90;99.90
29939;DHT22;16799;50.844;5.304;2024-02-14T09:13:58;12.00;99.90
29939;DHT22;16799;50.844;5.304;2024-02-14T09:16:30;12.00;99.90
29939;DHT22;16799;50.844;5.304;2024-02-14T09:18:56;12.00;99.90
29939;DHT22;16799;50.844;5.304;2024-02-14T09:21:23;12.00;99.90
29939;DHT22;16799;50.844;5.304;2024-02-14T09:23:49;12.00;99.90
29939;DHT22;16799;50.844;5.304;2024-02-14T09:26:15;11.90;99.90
29939;DHT22;16799;50.844;5.304;2024-02-14T09:28:43;11.90;99.90
29939;DHT22;16799;50.844;5.304;2024-02-14T09:31:09;11.90;99.90
29939;DHT22;16799;50.844;5.304;2024-02-14T09:33:37;11.90;99.90
29939;DHT22;16799;50.844;5.304;2024-02-14T09:36:03;11.80;99.90
29939;DHT22;16799;50.844;5.304;2024-02-14T09:38:30;11.90;99.90
29939;DHT22;16799;50.844;5.304;2024-02-14T09:41:11;12.00;99.90
29939;DHT22;16799;50.844;5.304;2024-02-14T09:43:41;12.10;99.90
29939;DHT22;16799;50.844;5.304;2024-02-14T09:46:08;12.10;99.90
29939;DHT22;16799;50.844;5.304;2024-02-14T09:48:34;12.00;99.90
29939;DHT22;16799;50.844;5.304;2024-02-14T09:51:03;12.00;99.90
29939;DHT22;16799;50.844;5.304;2024-02-14T09:53:29;12.10;99.90
29939;DHT22;16799;50.844;5.304;2024-02-14T09:55:56;12.00;99.90
29939;DHT22;16799;50.844;5.304;2024-02-14T09:58:22;11.90;99.90
29939;DHT22;16799;50.844;5.304;2024-02-14T10:00:49;11.70;99.90
29939;DHT22;16799;50.844;5.304;2024-02-14T10:03:16;11.80;99.90
29939;DHT22;16799;50.844;5.304;2024-02-14T10:05:42;11.90;99.90
29939;DHT22;16799;50.844;5.304;2024-02-14T10:08:07;12.00;99.90
29939;DHT22;16799;50.844;5.304;2024-02-14T10:10:34;12.00;99.90
29939;DHT22;16799;50.844;5.304;2024-02-14T10:13:03;12.00;99.90
29939;DHT22;16799;50.844;5.304;2024-02-14T10:15:28;11.90;99.90
29939;DHT22;16799;50.844;5.304;2024-02-14T10:17:58;12.00;99.90
29939;DHT22;16799;50.844;5.304;2024-02-14T10:20:24;12.20;99.90
29939;DHT22;16799;50.844;5.304;2024-02-14T10:22:49;12.30;99.90
29939;DHT22;16799;50.844;5.304;2024-02-14T10:25:15;12.40;99.90
29939;DHT22;16799;50.844;5.304;2024-02-14T10:27:42;12.40;99.90
29939;DHT22;16799;50.844;5.304;2024-02-14T10:30:08;12.40;99.90
29939;DHT22;16799;50.844;5.304;2024-02-14T10:32:44;12.30;99.90
29939;DHT22;16799;50.844;5.304;2024-02-14T10:35:13;12.40;99.90
29939;DHT22;16799;50.844;5.304;2024-02-14T10:37:40;12.50;99.90
29939;DHT22;16799;50.844;5.304;2024-02-14T10:40:06;12.50;99.90
29939;DHT22;16799;50.844;5.304;2024-02-14T10:42:32;12.50;99.90
29939;DHT22;16799;50.844;5.304;2024-02-14T10:45:02;12.50;99.90
29939;DHT22;16799;50.844;5.304;2024-02-14T10:47:35;12.30;99.90
29939;DHT22;16799;50.844;5.304;2024-02-14T10:50:06;12.30;99.90
29939;DHT22;16799;50.844;5.304;2024-02-14T10:52:36;12.30;99.90
29939;DHT22;16799;50.844;5.304;2024-02-14T10:55:03;12.20;99.90
29939;DHT22;16799;50.844;5.304;2024-02-14T10:57:29;12.10;99.90
29939;DHT22;16799;50.844;5.304;2024-02-14T10:59:56;12.10;99.90
29939;DHT22;16799;50.844;5.304;2024-02-14T11:02:23;12.20;99.90
29939;DHT22;16799;50.844;5.304;2024-02-14T11:04:49;12.00;99.90
29939;DHT22;16799;50.844;5.304;2024-02-14T11:07:20;12.00;99.90
29939;DHT22;16799;50.844;5.304;2024-02-14T11:09:45;12.10;99.90
29939;DHT22;16799;50.844;5.304;2024-02-14T11:12:11;12.00;99.90
29939;DHT22;16799;50.844;5.304;2024-02-14T11:14:37;12.00;99.90
29939;DHT22;16799;50.844;5.304;2024-02-14T11:17:09;11.90;99.90
29939;DHT22;16799;50.844;5.304;2024-02-14T11:19:35;11.90;99.90
29939;DHT22;16799;50.844;5.304;2024-02-14T11:22:18;11.90;99.90
29939;DHT22;16799;50.844;5.304;2024-02-14T11:24:47;11.90;99.90
29939;DHT22;16799;50.844;5.304;2024-02-14T11:27:13;11.90;99.90
29939;DHT22;16799;50.844;5.304;2024-02-14T11:29:40;11.80;99.90
29939;DHT22;16799;50.844;5.304;2024-02-14T11:32:09;11.70;99.90
29939;DHT22;16799;50.844;5.304;2024-02-14T11:34:36;11.80;99.90
29939;DHT22;16799;50.844;5.304;2024-02-14T11:37:02;11.80;99.90
29939;DHT22;16799;50.844;5.304;2024-02-14T11:39:28;11.90;99.90
29939;DHT22;16799;50.844;5.304;2024-02-14T11:41:56;11.90;99.90
29939;DHT22;16799;50.844;5.304;2024-02-14T11:44:21;11.90;99.90
29939;DHT22;16799;50.844;5.304;2024-02-14T11:46:47;11.90;99.90
29939;DHT22;16799;50.844;5.304;2024-02-14T11:49:13;11.90;99.90
29939;DHT22;16799;50.844;5.304;2024-02-14T11:51:39;11.90;99.90
29939;DHT22;16799;50.844;5.304;2024-02-14T11:54:07;11.90;99.90
29939;DHT22;16799;50.844;5.304;2024-02-14T11:56:38;11.90;99.90
29939;DHT22;16799;50.844;5.304;2024-02-14T11:59:07;12.10;99.90
29939;DHT22;16799;50.844;5.304;2024-02-14T12:01:35;12.10;99.90
29939;DHT22;16799;50.844;5.304;2024-02-14T12:04:02;12.00;99.90
29939;DHT22;16799;50.844;5.304;2024-02-14T12:06:30;12.10;99.90
29939;DHT22;16799;50.844;5.304;2024-02-14T12:09:05;12.00;99.90
29939;DHT22;16799;50.844;5.304;2024-02-14T12:11:33;12.00;99.90
29939;DHT22;16799;50.844;5.304;2024-02-14T12:14:02;11.90;99.90
29939;DHT22;16799;50.844;5.304;2024-02-14T12:16:28;11.90;99.90
29939;DHT22;16799;50.844;5.304;2024-02-14T12:19:13;12.00;99.90
29939;DHT22;16799;50.844;5.304;2024-02-14T12:21:41;12.10;99.90
29939;DHT22;16799;50.844;5.304;2024-02-14T12:24:11;12.10;99.90
29939;DHT22;16799;50.844;5.304;2024-02-14T12:26:38;12.10;99.90
29939;DHT22;16799;50.844;5.304;2024-02-14T12:29:04;12.10;99.90
29939;DHT22;16799;50.844;5.304;2024-02-14T12:31:31;12.20;99.90
29939;DHT22;16799;50.844;5.304;2024-02-14T12:33:57;12.20;99.90
29939;DHT22;16799;50.844;5.304;2024-02-14T12:36:26;12.20;99.90
29939;DHT22;16799;50.844;5.304;2024-02-14T12:38:53;12.30;99.90
29939;DHT22;16799;50.844;5.304;2024-02-14T12:41:19;12.30;99.90
29939;DHT22;16799;50.844;5.304;2024-02-14T12:43:44;12.30;99.90
29939;DHT22;16799;50.844;5.304;2024-02-14T12:46:10;12.30;99.90
29939;DHT22;16799;50.844;5.304;2024-02-14T12:48:36;12.30;99.90
29939;DHT22;16799;50.844;5.304;2024-02-14T12:51:02;12.40;99.90
29939;DHT22;16799;50.844;5.304;2024-02-14T12:53:27;12.40;99.90
29939;DHT22;16799;50.844;5.304;2024-02-14T12:55:53;12.40;99.90
29939;DHT22;16799;50.844;5.304;2024-02-14T12:58:19;12.40;99.90
29939;DHT22;16799;50.844;5.304;2024-02-14T13:00:44;12.30;99.90
29939;DHT22;16799;50.844;5.304;2024-02-14T13:03:11;12.30;99.90
29939;DHT22;16799;50.844;5.304;2024-02-14T13:05:37;12.40;99.90
29939;DHT22;16799;50.844;5.304;2024-02-14T13:08:03;12.40;99.90
29939;DHT22;16799;50.844;5.304;2024-02-14T13:10:29;12.30;99.90
29939;DHT22;16799;50.844;5.304;2024-02-14T13:12:57;12.30;99.90
29939;DHT22;16799;50.844;5.304;2024-02-14T13:15:22;12.30;99.90
29939;DHT22;16799;50.844;5.304;2024-02-14T13:17:48;12.40;99.90
29939;DHT22;16799;50.844;5.304;2024-02-14T13:20:14;12.40;99.90
29939;DHT22;16799;50.844;5.304;2024-02-14T13:22:41;12.40;99.90
29939;DHT22;16799;50.844;5.304;2024-02-14T13:25:07;12.40;99.90
29939;DHT22;16799;50.844;5.304;2024-02-14T13:27:34;12.30;99.90
29939;DHT22;16799;50.844;5.304;2024-02-14T13:30:01;12.30;99.90
29939;DHT22;16799;50.844;5.304;2024-02-14T13:32:27;12.20;99.90
29939;DHT22;16799;50.844;5.304;2024-02-14T13:34:52;12.30;99.90
29939;DHT22;16799;50.844;5.304;2024-02-14T13:37:18;12.20;99.90
29939;DHT22;16799;50.844;5.304;2024-02-14T13:39:45;12.20;99.90
29939;DHT22;16799;50.844;5.304;2024-02-14T13:42:11;12.30;99.90
29939;DHT22;16799;50.844;5.304;2024-02-14T13:44:36;12.20;99.90
29939;DHT22;16799;50.844;5.304;2024-02-14T13:47:02;12.30;99.90
29939;DHT22;16799;50.844;5.304;2024-02-14T13:49:28;12.30;99.90
29939;DHT22;16799;50.844;5.304;2024-02-14T13:51:54;12.30;99.90
29939;DHT22;16799;50.844;5.304;2024-02-14T13:54:20;12.40;99.90
29939;DHT22;16799;50.844;5.304;2024-02-14T13:56:46;12.40;99.90
29939;DHT22;16799;50.844;5.304;2024-02-14T13:59:14;12.30;99.90
29939;DHT22;16799;50.844;5.304;2024-02-14T14:01:40;12.40;99.90
29939;DHT22;16799;50.844;5.304;2024-02-14T14:04:06;12.40;99.90
29939;DHT22;16799;50.844;5.304;2024-02-14T14:06:32;12.30;99.90
29939;DHT22;16799;50.844;5.304;2024-02-14T14:08:57;12.30;99.90
29939;DHT22;16799;50.844;5.304;2024-02-14T14:11:24;12.40;99.90
29939;DHT22;16799;50.844;5.304;2024-02-14T14:13:50;12.30;99.90
29939;DHT22;16799;50.844;5.304;2024-02-14T14:16:15;12.30;99.90
29939;DHT22;16799;50.844;5.304;2024-02-14T14:18:41;12.30;99.90
29939;DHT22;16799;50.844;5.304;2024-02-14T14:21:07;12.30;99.90
29939;DHT22;16799;50.844;5.304;2024-02-14T14:23:33;12.30;99.90
29939;DHT22;16799;50.844;5.304;2024-02-14T14:25:59;12.30;99.90
29939;DHT22;16799;50.844;5.304;2024-02-14T14:28:26;12.40;99.90
29939;DHT22;16799;50.844;5.304;2024-02-14T14:30:52;12.40;99.90
29939;DHT22;16799;50.844;5.304;2024-02-14T14:33:19;12.40;99.90
29939;DHT22;16799;50.844;5.304;2024-02-14T14:35:45;12.30;99.90
29939;DHT22;16799;50.844;5.304;2024-02-14T14:38:11;12.40;99.90
29939;DHT22;16799;50.844;5.304;2024-02-14T14:40:36;12.40;99.90
29939;DHT22;16799;50.844;5.304;2024-02-14T14:43:03;12.30;99.90
29939;DHT22;16799;50.844;5.304;2024-02-14T14:45:29;12.30;99.90
29939;DHT22;16799;50.844;5.304;2024-02-14T14:47:56;12.30;99.90
29939;DHT22;16799;50.844;5.304;2024-02-14T14:50:22;12.30;99.90
29939;DHT22;16799;50.844;5.304;2024-02-14T14:52:47;12.40;99.90
29939;DHT22;16799;50.844;5.304;2024-02-14T14:55:13;12.40;99.90
29939;DHT22;16799;50.844;5.304;2024-02-14T14:57:39;12.50;99.90
29939;DHT22;16799;50.844;5.304;2024-02-14T15:00:09;12.50;99.90
29939;DHT22;16799;50.844;5.304;2024-02-14T15:02:42;12.40;99.90
29939;DHT22;16799;50.844;5.304;2024-02-14T15:05:12;12.60;99.90
29939;DHT22;16799;50.844;5.304;2024-02-14T15:07:38;12.60;99.90
29939;DHT22;16799;50.844;5.304;2024-02-14T15:10:05;12.50;99.90
29939;DHT22;16799;50.844;5.304;2024-02-14T15:12:31;12.50;99.90
29939;DHT22;16799;50.844;5.304;2024-02-14T15:14:56;12.60;99.90
29939;DHT22;16799;50.844;5.304;2024-02-14T15:17:22;12.50;99.90
29939;DHT22;16799;50.844;5.304;2024-02-14T15:19:49;12.50;99.90
29939;DHT22;16799;50.844;5.304;2024-02-14T15:22:14;12.50;99.90
29939;DHT22;16799;50.844;5.304;2024-02-14T15:24:40;12.60;99.90
29939;DHT22;16799;50.844;5.304;2024-02-14T15:27:08;12.70;99.90
29939;DHT22;16799;50.844;5.304;2024-02-14T15:29:36;12.70;99.90
29939;DHT22;16799;50.844;5.304;2024-02-14T15:32:21;12.70;99.90